LFTF weather

Cuers-Pierrefeu Airport
Cuers/Pierrefeu, Provence-Alpes-Côte-d'Azur, France

Public forecast

Using degrees Celsius for public forecast. Weather courtesy of forecast.io.

METAR (pilot weather report)

Closest report is Toulon-Hyères Airport, 9.1 nm (16.8 km) S. Retrieved 2019/09/23 03:30 UTC (21 minutes ago):

LFTH 230330Z AUTO 32006KT CAVOK 17/16 Q1013 NOSIG

TAF (pilot weather forecast)

Closest forecast is Toulon-Hyères Airport, 9.1 nm (16.8 km) S. Retrieved 2019/09/23 03:21 UTC (30 minutes ago):

TAF LFTH 230200Z 2303/2403 28006KT CAVOK TEMPO 2310/2320 27016KT